Time;durP1;ratioP1;P1;durP2;ratioP2;P2;SDS_P1;SDS_P2;PMS_P1;PMS_P2;Temp;Humidity;BMP_temperature;BMP_pressure;BME280_temperature;BME280_humidity;BME280_pressure;Samples;Min_cycle;Max_cycle;Signal;HPM_P1;HPM_P2
2020/12/20 00:01:49;;;;;;;19.27;16.23;;;;;;;6.76;100.00;100615.95;631907;225;32611;-71
2020/12/20 00:04:21;;;;;;;17.10;14.73;;;;;;;6.33;100.00;100618.16;625061;227;23662;-71
2020/12/20 00:09:33;;;;;;;18.07;15.70;;;;;;;6.88;100.00;100615.03;646248;217;32852;-73
2020/12/20 00:12:08;;;;;;;23.27;16.87;;;;;;;6.61;100.00;100607.98;639488;222;24840;-74
2020/12/20 00:14:39;;;;;;;17.33;14.37;;;;;;;6.41;100.00;100609.41;646833;221;24876;-74
2020/12/20 00:19:49;;;;;;;19.40;15.20;;;;;;;6.52;100.00;100608.19;649435;215;25495;-72
2020/12/20 00:22:19;;;;;;;19.57;15.30;;;;;;;6.54;100.00;100607.61;654211;217;24832;-72
2020/12/20 00:24:49;;;;;;;22.03;16.80;;;;;;;6.74;100.00;100614.74;648562;218;24759;-73
2020/12/20 00:27:20;;;;;;;22.80;17.20;;;;;;;6.73;100.00;100613.09;643503;222;24815;-73
2020/12/20 00:29:50;;;;;;;20.33;15.17;;;;;;;6.64;100.00;100612.95;640417;223;24791;-72
2020/12/20 00:32:21;;;;;;;20.92;16.67;;;;;;;7.24;100.00;100610.23;643593;218;32579;-71
2020/12/20 00:34:52;;;;;;;21.93;17.37;;;;;;;6.77;100.00;100608.55;639548;223;23827;-72
2020/12/20 00:37:24;;;;;;;21.45;17.17;;;;;;;7.30;100.00;100607.64;633304;223;32759;-73
2020/12/20 00:39:53;;;;;;;22.30;17.20;;;;;;;6.81;100.00;100597.87;638213;223;23717;-72
2020/12/20 00:42:23;;;;;;;21.50;15.97;;;;;;;6.58;100.00;100607.73;639918;223;28007;-72
2020/12/20 00:44:53;;;;;;;19.00;15.73;;;;;;;6.53;100.00;100610.66;656535;218;24754;-72
2020/12/20 00:47:24;;;;;;;20.47;15.80;;;;;;;6.57;100.00;100610.44;649216;219;24722;-73
2020/12/20 00:49:55;;;;;;;18.30;14.53;;;;;;;6.59;100.00;100611.14;655701;218;24741;-73
2020/12/20 00:52:26;;;;;;;21.70;15.87;;;;;;;6.55;100.00;100609.25;646516;219;24758;-72
2020/12/20 00:54:56;;;;;;;20.97;15.00;;;;;;;6.57;100.00;100609.14;636652;222;24797;-72
2020/12/20 00:57:27;;;;;;;16.83;13.93;;;;;;;6.64;100.00;100606.49;641382;222;24793;-72
2020/12/20 00:59:59;;;;;;;18.03;12.90;;;;;;;6.52;100.00;100604.31;656065;219;27012;-72
2020/12/20 01:05:09;;;;;;;15.70;13.00;;;;;;;6.58;100.00;100607.73;651245;217;24553;-73
2020/12/20 01:07:42;;;;;;;15.43;12.60;;;;;;;6.73;100.00;100603.22;639643;224;24788;-73
2020/12/20 01:10:11;;;;;;;16.23;12.07;;;;;;;6.57;100.00;100593.64;639791;224;24897;-73
2020/12/20 01:12:43;;;;;;;14.70;12.00;;;;;;;6.58;100.00;100603.04;632926;224;24805;-73
2020/12/20 01:15:13;;;;;;;12.57;10.43;;;;;;;6.40;100.00;100602.13;625019;229;28084;-71
2020/12/20 01:17:44;;;;;;;13.93;10.60;;;;;;;6.43;100.00;100605.78;625394;229;29036;-71
2020/12/20 01:20:16;;;;;;;12.07;9.63;;;;;;;6.42;100.00;100604.13;624852;229;24844;-70
2020/12/20 01:22:49;;;;;;;11.90;9.90;;;;;;;6.51;100.00;100605.25;627605;227;25075;-72
2020/12/20 01:25:21;;;;;;;14.43;11.55;;;;;;;7.23;100.00;100606.00;619940;229;32914;-70
2020/12/20 01:27:53;;;;;;;12.60;10.10;;;;;;;6.62;100.00;100605.78;625915;228;23824;-72
2020/12/20 01:32:04;;;;;;;12.40;10.13;;;;;;;6.47;100.00;100607.20;644920;217;33806;-73
2020/12/20 01:34:35;;;;;;;10.00;8.40;;;;;;;6.40;100.00;100609.87;632820;224;24856;-74
2020/12/20 01:37:05;;;;;;;12.03;8.70;;;;;;;6.44;100.00;100610.02;632380;225;24835;-73
2020/12/20 01:39:36;;;;;;;10.13;8.20;;;;;;;6.32;100.00;100622.50;632355;225;24835;-74
2020/12/20 01:42:08;;;;;;;11.53;8.80;;;;;;;6.41;100.00;100617.98;615196;230;24894;-72
2020/12/20 01:44:40;;;;;;;9.40;8.20;;;;;;;6.36;100.00;100622.66;621005;229;25087;-70
2020/12/20 01:47:15;;;;;;;14.27;10.33;;;;;;;6.78;100.00;100620.07;612811;229;36130;-74
2020/12/20 01:49:44;;;;;;;11.63;10.00;;;;;;;6.49;100.00;100621.33;617449;230;26002;-73
2020/12/20 01:52:14;;;;;;;12.83;9.70;;;;;;;6.44;100.00;100611.77;618311;231;25946;-72
2020/12/20 01:54:47;;;;;;;10.77;9.67;;;;;;;6.43;100.00;100616.11;617378;231;24966;-71
2020/12/20 01:57:17;;;;;;;13.65;10.95;;;;;;;7.03;100.00;100611.80;612432;231;33141;-72
2020/12/20 01:59:48;;;;;;;13.83;10.27;;;;;;;6.51;100.00;100604.78;619236;230;23736;-73
2020/12/20 02:02:20;;;;;;;12.30;10.07;;;;;;;6.51;100.00;100607.36;619228;231;28128;-73
2020/12/20 02:04:48;;;;;;;13.33;9.20;;;;;;;6.42;100.00;100606.72;615997;231;30250;-72
2020/12/20 02:07:18;;;;;;;13.10;9.60;;;;;;;6.63;100.00;100604.84;617545;230;24929;-71
2020/12/20 02:09:47;;;;;;;13.60;9.83;;;;;;;6.73;100.00;100605.34;618262;230;24884;-73
2020/12/20 02:12:18;;;;;;;11.00;9.70;;;;;;;6.80;100.00;100590.23;618046;231;28116;-73
2020/12/20 02:14:48;;;;;;;15.00;9.80;;;;;;;6.66;100.00;100599.45;616058;231;28046;-71
2020/12/20 02:17:18;;;;;;;11.33;9.37;;;;;;;6.57;100.00;100603.50;617114;231;24871;-73
2020/12/20 02:19:48;;;;;;;12.80;9.80;;;;;;;6.69;100.00;100601.80;617300;231;30356;-73
2020/12/20 02:22:18;;;;;;;10.63;9.10;;;;;;;6.68;100.00;100596.28;615292;227;24868;-73
2020/12/20 02:24:48;;;;;;;10.57;8.47;;;;;;;6.69;100.00;100603.09;619713;231;24875;-73
2020/12/20 02:27:20;;;;;;;9.43;8.20;;;;;;;6.57;100.00;100603.50;611974;231;26096;-73
2020/12/20 02:29:53;;;;;;;11.70;9.10;;;;;;;6.65;100.00;100607.67;619093;231;24859;-74
2020/12/20 02:32:25;;;;;;;11.87;8.00;;;;;;;6.66;100.00;100604.62;619846;226;24857;-73
2020/12/20 02:34:55;;;;;;;9.83;8.83;;;;;;;6.70;100.00;100609.91;618305;230;24832;-73
2020/12/20 02:37:26;;;;;;;11.90;9.20;;;;;;;6.61;100.00;100601.52;611303;233;24868;-72
2020/12/20 02:39:58;;;;;;;10.93;9.53;;;;;;;6.55;100.00;100599.74;612884;232;24888;-71
2020/12/20 02:42:29;;;;;;;11.30;8.83;;;;;;;6.49;100.00;100598.91;613706;226;24877;-71
2020/12/20 02:44:58;;;;;;;11.13;10.00;;;;;;;6.61;100.00;100598.47;617552;230;24872;-74
2020/12/20 02:47:27;;;;;;;13.67;10.20;;;;;;;6.53;100.00;100602.09;622056;230;24917;-73
2020/12/20 02:49:58;;;;;;;15.50;12.80;;;;;;;7.04;100.00;100596.20;612013;231;44147;-73
2020/12/20 02:52:30;;;;;;;11.77;10.13;;;;;;;6.67;100.00;100604.97;621746;231;24883;-74
2020/12/20 02:57:45;;;;;;;12.13;10.03;;;;;;;6.83;100.00;100603.75;652922;213;33439;-71
2020/12/20 03:00:16;;;;;;;12.40;10.70;;;;;;;7.35;100.00;100610.73;637126;221;32792;-73
2020/12/20 03:02:48;;;;;;;15.87;11.20;;;;;;;6.84;100.00;100613.63;640648;220;24832;-73
2020/12/20 03:05:17;;;;;;;12.73;9.37;;;;;;;6.80;100.00;100614.78;643348;220;27968;-72
2020/12/20 03:07:46;;;;;;;10.57;8.60;;;;;;;6.80;100.00;100619.48;633166;225;24857;-72
2020/12/20 03:10:17;;;;;;;10.30;8.60;;;;;;;6.82;100.00;100619.38;635868;225;24802;-72
2020/12/20 03:12:47;;;;;;;10.93;9.00;;;;;;;6.72;100.00;100622.25;628931;225;24902;-72
2020/12/20 03:15:19;;;;;;;12.83;10.30;;;;;;;6.79;100.00;100620.89;642810;222;28079;-71
2020/12/20 03:17:51;;;;;;;11.97;9.90;;;;;;;6.73;100.00;100614.86;642101;221;24803;-72
2020/12/20 03:20:25;;;;;;;11.20;9.70;;;;;;;6.66;100.00;100614.95;639918;222;27973;-72
2020/12/20 03:22:58;;;;;;;11.50;10.17;;;;;;;6.60;100.00;100620.08;626510;226;25220;-72
2020/12/20 03:25:28;;;;;;;12.25;10.72;;;;;;;7.12;100.00;100617.13;628414;226;33160;-73
2020/12/20 03:27:57;;;;;;;13.87;10.70;;;;;;;6.70;100.00;100617.67;633522;226;23711;-72
2020/12/20 03:30:27;;;;;;;14.30;10.13;;;;;;;6.74;100.00;100614.74;638069;221;24769;-72
2020/12/20 03:33:02;;;;;;;13.67;11.50;;;;;;;6.68;100.00;100619.55;641434;222;24781;-72
2020/12/20 03:35:30;;;;;;;14.37;10.50;;;;;;;6.62;100.00;100613.53;643793;221;25049;-72
2020/12/20 03:38:03;;;;;;;12.53;10.93;;;;;;;7.19;100.00;100609.76;637727;221;32718;-72
2020/12/20 03:40:33;;;;;;;12.20;10.30;;;;;;;6.67;100.00;100611.44;642379;222;24871;-70
2020/12/20 03:43:04;;;;;;;12.83;9.83;;;;;;;6.52;100.00;100604.31;647145;222;24794;-72
2020/12/20 03:45:35;;;;;;;12.10;10.80;;;;;;;6.39;100.00;100617.27;641274;221;24858;-73
2020/12/20 03:48:08;;;;;;;11.80;9.80;;;;;;;6.46;100.00;100611.19;642239;221;24871;-72
2020/12/20 03:50:40;;;;;;;11.70;9.67;;;;;;;6.60;100.00;100612.32;642268;222;24861;-72
2020/12/20 03:53:11;;;;;;;11.07;9.23;;;;;;;6.52;100.00;100601.26;643349;221;24871;-72
2020/12/20 03:55:42;;;;;;;12.90;10.90;;;;;;;6.63;100.00;100602.26;645895;221;24865;-73
2020/12/20 03:58:16;;;;;;;18.17;11.48;;;;;;;6.98;100.00;100603.09;642527;222;32840;-72
2020/12/20 04:00:46;;;;;;;12.23;10.93;;;;;;;7.26;100.00;100606.23;638949;222;33317;-72
2020/12/20 04:03:17;;;;;;;13.20;11.80;;;;;;;6.87;100.00;100606.92;637014;225;23746;-72
2020/12/20 04:05:47;;;;;;;14.13;11.90;;;;;;;7.42;100.00;100607.55;636232;221;33144;-72
2020/12/20 04:08:17;;;;;;;14.13;12.07;;;;;;;7.43;100.00;100604.50;626532;223;33828;-72
2020/12/20 04:10:47;;;;;;;14.47;11.53;;;;;;;7.45;99.94;100601.32;626220;225;44185;-72
2020/12/20 04:13:18;;;;;;;13.63;11.40;;;;;;;6.74;100.00;100608.75;633154;224;25792;-73
2020/12/20 04:15:49;;;;;;;11.90;9.53;;;;;;;6.57;100.00;100612.55;641803;223;24814;-72
2020/12/20 04:18:19;;;;;;;13.20;10.23;;;;;;;6.62;100.00;100614.36;642130;223;25108;-73
2020/12/20 04:20:50;;;;;;;12.82;10.65;;;;;;;7.22;100.00;100615.17;629879;225;33244;-72
2020/12/20 04:23:22;;;;;;;10.10;9.00;;;;;;;6.80;100.00;100622.55;633648;225;23735;-72
2020/12/20 04:25:54;;;;;;;12.57;10.10;;;;;;;6.65;100.00;100613.31;632724;225;24906;-72
2020/12/20 04:28:26;;;;;;;12.00;8.97;;;;;;;6.66;100.00;100603.33;645028;221;24801;-72
2020/12/20 04:30:56;;;;;;;9.10;7.83;;;;;;;6.52;100.00;100604.31;634973;226;24821;-72
2020/12/20 04:33:27;;;;;;;10.60;9.50;;;;;;;7.19;100.00;100603.77;628571;226;32701;-72
2020/12/20 04:35:58;;;;;;;13.45;10.50;;;;;;;7.54;100.00;100603.70;627692;226;32728;-71
2020/12/20 04:38:29;;;;;;;11.20;9.40;;;;;;;7.57;99.57;100602.16;628187;226;33498;-72
2020/12/20 04:40:59;;;;;;;12.57;10.10;;;;;;;6.82;100.00;100606.45;631121;225;23777;-72
2020/12/20 04:43:32;;;;;;;11.63;8.97;;;;;;;6.66;100.00;100604.62;643992;221;24813;-71
2020/12/20 04:46:04;;;;;;;10.70;8.50;;;;;;;6.55;100.00;100604.91;647403;221;24795;-72
2020/12/20 04:48:37;;;;;;;9.60;8.20;;;;;;;6.45;100.00;100607.78;631481;226;25131;-71
2020/12/20 04:51:08;;;;;;;11.40;9.97;;;;;;;7.11;100.00;100603.02;630704;225;33173;-72
2020/12/20 04:53:42;;;;;;;11.88;10.15;;;;;;;7.10;100.00;100597.49;639909;222;32788;-72
2020/12/20 04:56:13;;;;;;;11.10;9.90;;;;;;;7.18;100.00;100590.44;632628;222;33100;-72
2020/12/20 04:58:44;;;;;;;11.40;10.07;;;;;;;6.66;100.00;100596.86;632767;225;23748;-71
2020/12/20 05:01:14;;;;;;;10.20;8.77;;;;;;;6.45;100.00;100597.45;631765;226;24920;-72
2020/12/20 05:03:45;;;;;;;9.53;8.17;;;;;;;6.47;100.00;100595.58;636199;226;24867;-73
2020/12/20 05:06:17;;;;;;;9.67;8.67;;;;;;;6.44;100.00;100597.09;637460;225;24802;-73
2020/12/20 05:08:48;;;;;;;9.87;8.70;;;;;;;6.89;100.00;100591.30;639758;221;32702;-71
2020/12/20 05:11:37;;;;;;;10.27;8.60;;;;;;;6.45;100.00;100596.63;644832;221;24778;-73
2020/12/20 05:14:06;;;;;;;12.17;7.77;;;;;;;6.38;100.00;100602.70;644518;221;25072;-72
2020/12/20 05:16:37;;;;;;;12.40;7.83;;;;;;;6.44;100.00;100601.44;634402;225;24890;-72
2020/12/20 05:19:06;;;;;;;10.40;8.03;;;;;;;6.21;100.00;100603.08;634055;223;24839;-72
2020/12/20 05:21:37;;;;;;;9.70;7.70;;;;;;;6.22;100.00;100613.30;650097;220;24784;-72
2020/12/20 05:24:25;;;;;;;8.23;7.33;;;;;;;6.18;100.00;100610.55;642696;221;24799;-73
2020/12/20 05:26:58;;;;;;;10.77;7.83;;;;;;;6.17;100.00;100619.70;635990;225;24922;-72
2020/12/20 05:29:28;;;;;;;10.30;8.20;;;;;;;6.70;100.00;100624.13;631792;225;33078;-72
2020/12/20 05:31:57;;;;;;;12.67;8.27;;;;;;;6.43;100.00;100620.45;635300;225;23679;-72
2020/12/20 05:34:28;;;;;;;9.47;7.77;;;;;;;6.40;100.00;100625.38;635059;225;24889;-72
2020/12/20 05:37:02;;;;;;;8.63;6.73;;;;;;;6.29;100.00;100629.17;640744;222;24791;-72
2020/12/20 05:39:36;;;;;;;9.50;7.33;;;;;;;6.20;100.00;100629.84;638189;221;25961;-72
2020/12/20 05:42:09;;;;;;;10.63;7.63;;;;;;;6.36;100.00;100631.70;635614;221;24778;-72
2020/12/20 05:44:44;;;;;;;10.27;8.40;;;;;;;6.31;100.00;100623.44;642925;221;24776;-72
2020/12/20 05:47:20;;;;;;;9.80;8.20;;;;;;;6.22;100.00;100617.64;641670;221;25063;-72
2020/12/20 05:49:53;;;;;;;9.93;7.80;;;;;;;6.18;100.00;100618.77;637133;221;26972;-72
2020/12/20 05:52:23;;;;;;;11.90;8.37;;;;;;;6.20;100.00;100617.75;643144;222;24771;-72
2020/12/20 05:54:54;;;;;;;10.63;9.28;;;;;;;6.70;100.00;100616.37;635264;221;32722;-72
2020/12/20 05:57:24;;;;;;;11.70;9.10;;;;;;;6.65;100.00;100619.77;638540;221;32714;-72
2020/12/20 05:59:55;;;;;;;10.70;8.47;;;;;;;6.35;100.00;100609.39;634203;226;23674;-74
2020/12/20 06:02:27;;;;;;;10.17;7.70;;;;;;;6.27;100.00;100627.17;632463;222;24884;-70
2020/12/20 06:05:01;;;;;;;9.80;7.30;;;;;;;6.25;100.00;100631.16;636129;225;24881;-72
2020/12/20 06:07:32;;;;;;;9.10;7.67;;;;;;;6.34;100.00;100628.41;632924;225;24904;-71
2020/12/20 06:10:01;;;;;;;9.97;7.97;;;;;;;6.43;100.00;100632.08;646897;217;24864;-69
2020/12/20 06:12:33;;;;;;;11.10;7.13;;;;;;;6.38;100.00;100632.41;636283;225;24913;-72
2020/12/20 06:15:04;;;;;;;9.13;8.20;;;;;;;6.57;100.00;100631.93;643426;221;24790;-71
2020/12/20 06:17:36;;;;;;;13.07;8.40;;;;;;;6.57;100.00;100634.98;632598;226;24848;-71
2020/12/20 06:20:06;;;;;;;9.93;8.07;;;;;;;6.40;100.00;100639.59;642994;221;24805;-72
2020/12/20 06:22:37;;;;;;;10.60;7.10;;;;;;;6.38;100.00;100639.34;628769;226;24884;-72
2020/12/20 06:25:11;;;;;;;10.13;7.67;;;;;;;6.32;100.00;100638.00;641429;221;24778;-72
2020/12/20 06:27:42;;;;;;;11.13;8.97;;;;;;;6.28;100.00;100640.44;634759;226;24853;-71
2020/12/20 06:30:13;;;;;;;9.90;8.40;;;;;;;6.24;100.00;100646.77;637036;224;24856;-71
2020/12/20 06:32:45;;;;;;;9.53;8.53;;;;;;;6.30;100.00;100641.63;643429;221;27958;-71
2020/12/20 06:35:17;;;;;;;12.30;8.90;;;;;;;6.46;100.00;100645.60;643385;220;25365;-74
2020/12/20 06:37:48;;;;;;;11.25;9.20;;;;;;;6.88;100.00;100652.52;637217;220;32823;-74
2020/12/20 06:40:21;;;;;;;10.33;8.50;;;;;;;6.57;100.00;100653.07;642793;221;23707;-74
2020/12/20 06:42:54;;;;;;;9.97;8.67;;;;;;;6.51;100.00;100646.13;626777;225;28137;-74
2020/12/20 06:45:24;;;;;;;9.90;7.70;;;;;;;6.42;100.00;100649.34;633230;226;24895;-72
2020/12/20 06:47:55;;;;;;;10.95;9.20;;;;;;;6.89;100.00;100648.17;629695;225;32914;-74
2020/12/20 06:50:43;;;;;;;10.37;8.50;;;;;;;6.52;100.00;100649.06;637134;225;23747;-73
2020/12/20 06:53:15;;;;;;;11.30;8.47;;;;;;;6.33;100.00;100647.39;638240;221;25102;-73
2020/12/20 06:55:47;;;;;;;9.93;8.03;;;;;;;6.34;100.00;100645.66;640818;221;24888;-73
2020/12/20 06:58:19;;;;;;;10.23;9.20;;;;;;;6.85;100.00;100641.94;632416;221;32730;-74
2020/12/20 07:00:51;;;;;;;9.80;8.80;;;;;;;7.14;100.00;100643.70;632722;221;32894;-74
2020/12/20 07:03:35;;;;;;;9.80;8.80;;;;;;;7.22;100.00;100639.74;627525;225;32913;-73
2020/12/20 07:06:19;;;;;;;11.00;8.70;;;;;;;6.50;100.00;100648.81;630821;225;23741;-74
2020/12/20 07:11:42;;;;;;;10.00;8.50;;;;;;;6.73;100.00;100654.92;651355;217;25429;-72
2020/12/20 07:14:21;;;;;;;10.93;7.93;;;;;;;6.73;100.00;100658.80;639231;224;24755;-71
2020/12/20 07:16:51;;;;;;;8.73;7.23;;;;;;;6.49;100.00;100671.72;638976;224;25027;-72
2020/12/20 07:19:25;;;;;;;9.53;7.60;;;;;;;6.51;100.00;100671.13;624365;229;24915;-73
2020/12/20 07:22:00;;;;;;;10.03;8.98;;;;;;;7.30;100.00;100667.15;618380;229;32971;-72
2020/12/20 07:24:32;;;;;;;14.30;10.30;;;;;;;6.92;100.00;100665.61;639484;224;23813;-72
2020/12/20 07:27:04;;;;;;;12.87;10.40;;;;;;;7.40;100.00;100672.01;621140;229;32774;-72
2020/12/20 07:29:33;;;;;;;13.40;10.07;;;;;;;6.88;100.00;100678.84;624287;229;25275;-72
2020/12/20 07:32:04;;;;;;;14.43;10.40;;;;;;;6.89;100.00;100687.78;640552;223;24826;-72
2020/12/20 07:34:38;;;;;;;11.68;9.80;;;;;;;7.31;100.00;100688.20;618085;229;33120;-72
2020/12/20 07:37:09;;;;;;;10.77;8.97;;;;;;;6.79;100.00;100685.52;624786;229;23715;-73
2020/12/20 07:39:44;;;;;;;9.90;8.50;;;;;;;6.72;100.00;100688.16;628126;226;24833;-72
2020/12/20 07:42:14;;;;;;;11.63;8.47;;;;;;;6.62;100.00;100682.02;627451;228;24873;-73
2020/12/20 07:47:24;;;;;;;10.47;8.53;;;;;;;6.62;100.00;100683.31;651310;217;25432;-73
2020/12/20 07:50:00;;;;;;;11.43;8.83;;;;;;;6.59;100.00;100682.20;638440;224;24831;-73
2020/12/20 07:52:32;;;;;;;12.47;8.47;;;;;;;6.58;100.00;100689.14;634215;224;24857;-72
2020/12/20 07:55:04;;;;;;;11.25;9.80;;;;;;;7.20;100.00;100685.13;620776;229;43428;-73
2020/12/20 07:57:37;;;;;;;16.80;11.13;;;;;;;6.88;100.00;100684.84;626597;229;24050;-72
2020/12/20 08:00:08;;;;;;;16.20;11.27;;;;;;;6.77;100.00;100686.92;625835;229;28031;-73
2020/12/20 08:02:38;;;;;;;13.83;10.07;;;;;;;6.67;100.00;100685.91;626802;225;24856;-73
2020/12/20 08:05:08;;;;;;;11.40;9.90;;;;;;;7.20;100.00;100682.54;620176;229;32835;-73
2020/12/20 08:10:19;;;;;;;13.10;11.43;;;;;;;7.45;100.00;100677.66;645916;217;32856;-75
2020/12/20 08:12:55;;;;;;;11.43;10.20;;;;;;;7.51;100.00;100678.52;639668;220;33060;-72
2020/12/20 08:15:28;;;;;;;9.80;8.27;;;;;;;6.82;100.00;100682.70;633709;224;25920;-72
2020/12/20 08:17:58;;;;;;;9.70;7.97;;;;;;;6.60;100.00;100677.39;638991;224;24828;-71
2020/12/20 08:20:30;;;;;;;10.18;9.08;;;;;;;7.25;100.00;100672.67;632775;224;32586;-71
2020/12/20 08:23:01;;;;;;;11.50;10.30;;;;;;;7.42;100.00;100672.72;633697;221;32574;-72
2020/12/20 08:25:32;;;;;;;10.77;9.20;;;;;;;7.10;100.00;100681.55;638126;223;23635;-72
2020/12/20 08:28:02;;;;;;;12.10;9.60;;;;;;;7.13;100.00;100687.31;638131;223;24776;-72
2020/12/20 08:30:32;;;;;;;13.80;9.53;;;;;;;7.20;100.00;100696.77;636875;225;24764;-72
2020/12/20 08:33:04;;;;;;;10.93;8.97;;;;;;;7.07;100.00;100695.53;638097;221;25128;-72
2020/12/20 08:35:36;;;;;;;13.62;11.38;;;;;;;7.57;100.00;100707.81;633910;225;32636;-71
2020/12/20 08:38:09;;;;;;;13.33;10.67;;;;;;;7.13;100.00;100713.18;625370;229;23722;-72
2020/12/20 08:40:42;;;;;;;11.07;9.43;;;;;;;7.09;100.00;100713.05;639828;223;24806;-71
2020/12/20 08:43:13;;;;;;;9.47;8.47;;;;;;;6.89;100.00;100724.45;631965;225;24880;-72
2020/12/20 08:45:45;;;;;;;12.20;8.63;;;;;;;6.99;100.00;100720.28;628923;225;26014;-72
2020/12/20 08:48:16;;;;;;;11.10;8.57;;;;;;;7.05;100.00;100720.69;624827;229;24820;-71
2020/12/20 08:50:46;;;;;;;11.50;8.90;;;;;;;7.22;100.00;100722.05;624862;229;26976;-72
2020/12/20 08:53:18;;;;;;;10.73;8.87;;;;;;;7.29;100.00;100715.48;624622;225;24807;-72
2020/12/20 08:55:48;;;;;;;11.13;9.87;;;;;;;7.29;100.00;100713.36;625421;229;24848;-71
2020/12/20 08:58:21;;;;;;;13.80;9.40;;;;;;;7.28;100.00;100716.42;629753;225;24844;-71
2020/12/20 09:00:52;;;;;;;13.03;9.93;;;;;;;7.17;100.00;100705.19;634018;226;27986;-71
2020/12/20 09:03:28;;;;;;;12.50;10.07;;;;;;;7.16;100.00;100700.48;626461;225;24845;-71
2020/12/20 09:06:01;;;;;;;14.53;11.65;;;;;;;7.40;100.00;100710.82;619498;229;32791;-72
2020/12/20 09:08:37;;;;;;;12.77;10.90;;;;;;;7.26;100.00;100710.53;628402;227;26906;-72
2020/12/20 09:11:07;;;;;;;14.23;10.50;;;;;;;7.14;100.00;100710.12;641242;221;24808;-71
2020/12/20 09:13:38;;;;;;;13.13;11.10;;;;;;;7.10;100.00;100710.82;625781;225;25995;-71
2020/12/20 09:16:10;;;;;;;11.63;10.03;;;;;;;7.19;100.00;100716.28;624902;228;28031;-70
2020/12/20 09:18:42;;;;;;;13.83;10.70;;;;;;;7.33;100.00;100721.28;627445;228;24861;-72
2020/12/20 09:21:11;;;;;;;13.90;11.67;;;;;;;7.72;100.00;100723.97;626844;227;24887;-71
2020/12/20 09:23:40;;;;;;;15.37;12.57;;;;;;;7.85;100.00;100729.06;625926;225;25089;-70
2020/12/20 09:26:11;;;;;;;16.15;14.15;;;;;;;8.41;100.00;100722.19;622910;226;44016;-72
2020/12/20 09:28:40;;;;;;;14.37;12.47;;;;;;;8.21;100.00;100724.99;627995;227;23748;-71
2020/12/20 09:31:16;;;;;;;15.72;12.65;;;;;;;8.78;100.00;100724.03;621737;227;32984;-72
2020/12/20 09:33:44;;;;;;;12.37;10.30;;;;;;;8.35;100.00;100719.25;626957;225;23696;-72
2020/12/20 09:36:20;;;;;;;13.23;10.50;;;;;;;8.28;100.00;100711.91;626580;229;24965;-70
2020/12/20 09:38:51;;;;;;;12.03;10.73;;;;;;;8.87;99.75;100717.31;621618;228;32786;-72
2020/12/20 09:41:20;;;;;;;13.50;10.67;;;;;;;8.43;100.00;100728.55;627191;228;24950;-72
2020/12/20 09:43:50;;;;;;;13.43;11.53;;;;;;;8.72;98.89;100728.87;631816;220;43515;-71
2020/12/20 09:46:21;;;;;;;13.93;10.47;;;;;;;8.28;100.00;100734.41;627271;223;23717;-71
2020/12/20 09:48:50;;;;;;;11.40;10.20;;;;;;;8.01;100.00;100743.80;625785;229;24818;-72
2020/12/20 09:51:21;;;;;;;12.30;10.63;;;;;;;7.93;100.00;100743.56;620291;230;24896;-71
2020/12/20 09:53:50;;;;;;;13.03;10.40;;;;;;;7.98;100.00;100751.80;625353;225;24817;-71
2020/12/20 09:59:02;;;;;;;12.07;10.80;;;;;;;7.96;100.00;100748.51;652420;217;25408;-73
2020/12/20 10:01:32;;;;;;;15.28;12.60;;;;;;;8.78;100.00;100748.67;632687;224;32707;-72
2020/12/20 10:04:01;;;;;;;13.73;11.50;;;;;;;8.55;100.00;100751.75;627009;223;23664;-72
2020/12/20 10:06:31;;;;;;;13.93;12.00;;;;;;;8.54;100.00;100760.47;625313;228;25042;-71
2020/12/20 10:09:00;;;;;;;15.25;12.40;;;;;;;9.12;100.00;100755.90;620160;229;32864;-72
2020/12/20 10:11:29;;;;;;;18.80;14.17;;;;;;;9.04;100.00;100760.07;625939;227;24266;-71
2020/12/20 10:13:58;;;;;;;22.22;17.50;;;;;;;9.52;98.59;100741.83;635270;224;32862;-70
2020/12/20 10:16:28;;;;;;;16.10;14.40;;;;;;;9.14;100.00;100744.09;625210;229;23683;-73
2020/12/20 10:21:36;;;;;;;22.97;17.27;;;;;;;9.17;100.00;100757.67;649800;217;25448;-73
2020/12/20 10:24:06;;;;;;;17.70;15.70;;;;;;;9.58;99.14;100748.79;636779;220;32816;-71
2020/12/20 10:26:35;;;;;;;16.10;13.80;;;;;;;9.14;100.00;100755.77;642176;221;23668;-71
2020/12/20 10:29:05;;;;;;;19.83;16.80;;;;;;;9.65;99.59;100751.22;637719;220;32888;-70
2020/12/20 10:31:34;;;;;;;15.15;13.55;;;;;;;10.06;99.05;100743.41;639737;221;32760;-73
2020/12/20 10:34:05;;;;;;;16.47;12.90;;;;;;;9.61;100.00;100745.46;644416;221;25858;-71
2020/12/20 10:36:34;;;;;;;14.30;11.67;;;;;;;9.64;100.00;100756.89;643252;221;24868;-70
2020/12/20 10:39:04;;;;;;;15.20;12.80;;;;;;;9.75;100.00;100748.22;644364;221;25376;-72
2020/12/20 10:41:37;;;;;;;17.53;14.00;;;;;;;9.88;99.49;100734.56;640248;221;32860;-72
2020/12/20 10:44:07;;;;;;;16.65;14.05;;;;;;;9.96;97.79;100736.03;639141;221;33020;-71
2020/12/20 10:46:37;;;;;;;18.32;13.85;;;;;;;10.23;97.89;100732.09;642484;221;32861;-72
2020/12/20 10:49:05;;;;;;;19.30;14.10;;;;;;;9.91;99.78;100746.00;644126;221;23689;-71
2020/12/20 10:51:35;;;;;;;17.07;15.27;;;;;;;10.11;97.69;100739.13;631923;225;33049;-72
2020/12/20 10:54:05;;;;;;;18.23;14.67;;;;;;;9.66;99.58;100747.19;645607;221;24763;-71
2020/12/20 10:56:35;;;;;;;16.33;14.03;;;;;;;9.76;99.67;100742.90;639850;222;24833;-72
2020/12/20 10:59:06;;;;;;;18.27;15.80;;;;;;;10.20;97.41;100731.86;636983;221;33030;-71
2020/12/20 11:01:36;;;;;;;19.10;16.73;;;;;;;9.69;99.28;100737.84;643571;221;23723;-71
2020/12/20 11:06:45;;;;;;;18.80;16.37;;;;;;;9.67;100.00;100737.63;650797;208;25398;-73
2020/12/20 11:09:15;;;;;;;21.17;16.27;;;;;;;9.59;100.00;100732.27;643846;220;26990;-72
2020/12/20 11:11:46;;;;;;;24.70;18.65;;;;;;;10.05;98.04;100723.58;634194;220;33004;-72
2020/12/20 11:16:56;;;;;;;24.80;17.70;;;;;;;9.56;100.00;100733.31;650473;217;25401;-73
2020/12/20 11:19:28;;;;;;;26.23;20.20;;;;;;;9.59;100.00;100727.06;640334;223;24813;-71
2020/12/20 11:21:58;;;;;;;23.93;19.30;;;;;;;9.72;100.00;100729.00;637000;225;23879;-71
2020/12/20 11:27:08;;;;;;;27.87;23.07;;;;;;;10.22;99.68;100714.86;643888;217;32594;-74
2020/12/20 11:29:39;;;;;;;26.50;21.17;;;;;;;9.84;100.00;100712.38;660266;216;23655;-72
2020/12/20 11:32:09;;;;;;;26.67;20.13;;;;;;;9.76;100.00;100716.10;658190;216;29047;-70
2020/12/20 11:34:39;;;;;;;27.93;22.10;;;;;;;10.17;100.00;100711.81;635787;221;32952;-71
2020/12/20 11:37:09;;;;;;;27.53;22.80;;;;;;;9.90;100.00;100709.28;639899;221;24828;-71
2020/12/20 11:39:39;;;;;;;32.60;25.13;;;;;;;9.80;100.00;100708.39;637757;223;24819;-72
2020/12/20 11:42:13;;;;;;;29.98;24.92;;;;;;;10.35;100.00;100703.28;625176;226;32941;-71
2020/12/20 11:44:41;;;;;;;23.43;20.07;;;;;;;9.78;100.00;100706.41;629841;226;23691;-73
2020/12/20 11:47:11;;;;;;;28.33;19.37;;;;;;;9.82;100.00;100706.01;641249;221;25058;-71
2020/12/20 11:49:44;;;;;;;27.90;22.73;;;;;;;10.46;99.43;100701.06;641249;221;43580;-71
2020/12/20 11:52:15;;;;;;;32.33;26.07;;;;;;;10.62;98.73;100697.48;640851;220;32750;-72
2020/12/20 11:54:47;;;;;;;28.30;23.17;;;;;;;10.08;100.00;100710.80;640996;220;23671;-71
2020/12/20 11:57:17;;;;;;;29.07;20.47;;;;;;;9.99;100.00;100712.41;629105;225;24848;-71
2020/12/20 11:59:50;;;;;;;26.33;19.77;;;;;;;9.91;100.00;100710.92;627226;226;25016;-71
2020/12/20 12:05:01;;;;;;;29.70;21.37;;;;;;;9.94;100.00;100706.77;651122;217;25410;-74
2020/12/20 12:07:35;;;;;;;32.57;20.77;;;;;;;9.98;100.00;100704.72;637974;224;25303;-72
2020/12/20 12:10:06;;;;;;;33.63;24.67;;;;;;;10.33;100.00;100702.59;633311;223;32770;-72